createdAt,value
2023-01-21T00:00:08.530Z,-1.20
2023-01-21T00:02:11.125Z,-1.20
2023-01-21T00:04:14.818Z,-1.20
2023-01-21T00:06:17.705Z,-1.10
2023-01-21T00:08:20.243Z,-1.10
2023-01-21T00:10:24.109Z,-1.10
2023-01-21T00:12:26.671Z,-1.10
2023-01-21T00:14:29.334Z,-1.00
2023-01-21T00:16:31.927Z,-1.00
2023-01-21T00:18:34.574Z,-1.10
2023-01-21T00:20:37.365Z,-1.10
2023-01-21T00:22:39.928Z,-1.10
2023-01-21T00:24:43.133Z,-1.10
2023-01-21T00:26:45.613Z,-1.10
2023-01-21T00:28:48.221Z,-1.20
2023-01-21T00:30:52.476Z,-1.30
2023-01-21T00:32:55.196Z,-1.20
2023-01-21T00:34:57.693Z,-1.20
2023-01-21T00:37:20.989Z,-1.20
2023-01-21T00:39:26.549Z,-1.20
2023-01-21T00:41:29.255Z,-1.30
2023-01-21T00:43:32.088Z,-1.30
2023-01-21T00:45:34.590Z,-1.40
2023-01-21T00:47:37.182Z,-1.40
2023-01-21T00:49:39.847Z,-1.50
2023-01-21T00:51:42.289Z,-1.50
2023-01-21T00:53:44.791Z,-1.50
2023-01-21T00:55:47.295Z,-1.40
2023-01-21T00:57:49.870Z,-1.40
2023-01-21T00:59:53.061Z,-1.40
2023-01-21T01:01:55.679Z,-1.50
2023-01-21T01:03:58.182Z,-1.50
2023-01-21T01:06:04.586Z,-1.50
2023-01-21T01:08:07.203Z,-1.60
2023-01-21T01:10:11.049Z,-1.60
2023-01-21T01:12:13.524Z,-1.70
2023-01-21T01:14:16.028Z,-1.70
2023-01-21T01:16:18.589Z,-1.70
2023-01-21T01:18:22.412Z,-1.70
2023-01-21T01:20:25.028Z,-1.70
2023-01-21T01:22:27.549Z,-1.70
2023-01-21T01:24:30.630Z,-1.60
2023-01-21T01:26:35.060Z,-1.80
2023-01-21T01:28:37.543Z,-1.90
2023-01-21T01:30:40.110Z,-1.90
2023-01-21T01:32:42.671Z,-1.90
2023-01-21T01:34:45.739Z,-1.90
2023-01-21T01:36:49.189Z,-1.80
2023-01-21T01:38:52.301Z,-1.90
2023-01-21T01:40:55.070Z,-1.90
2023-01-21T01:42:57.552Z,-2.00
2023-01-21T01:45:01.058Z,-1.90
2023-01-21T01:47:04.329Z,-1.80
2023-01-21T01:49:09.119Z,-1.90
2023-01-21T01:51:12.935Z,-2.00
2023-01-21T01:53:15.928Z,-1.90
2023-01-21T01:55:18.457Z,-1.90
2023-01-21T01:57:22.737Z,-1.90
2023-01-21T01:59:25.531Z,-2.00
2023-01-21T02:01:28.101Z,-2.10
2023-01-21T02:03:44.261Z,-2.20
2023-01-21T02:05:48.382Z,-2.20
2023-01-21T02:07:50.987Z,-2.20
2023-01-21T02:09:53.844Z,-2.10
2023-01-21T02:11:56.412Z,-2.10
2023-01-21T02:13:59.527Z,-2.10
2023-01-21T02:16:05.844Z,-2.00
2023-01-21T02:18:10.219Z,-2.10
2023-01-21T02:20:20.946Z,-2.10
2023-01-21T02:22:27.166Z,-2.10
2023-01-21T02:24:42.835Z,-2.10
2023-01-21T02:27:04.440Z,-2.00
2023-01-21T02:29:28.127Z,-2.10
2023-01-21T02:31:39.280Z,-2.10
2023-01-21T02:33:52.326Z,-2.10
2023-01-21T02:35:57.565Z,-2.10
2023-01-21T02:38:02.145Z,-2.30
2023-01-21T02:40:08.789Z,-2.60
2023-01-21T02:42:13.251Z,-2.70
2023-01-21T02:44:17.548Z,-2.70
2023-01-21T02:46:22.045Z,-2.80
2023-01-21T02:48:26.394Z,-2.70
2023-01-21T02:50:30.409Z,-2.70
2023-01-21T02:52:32.998Z,-2.70
2023-01-21T02:54:47.961Z,-2.60
2023-01-21T02:56:50.453Z,-2.60
2023-01-21T02:58:54.574Z,-2.60
2023-01-21T03:00:59.939Z,-2.70
2023-01-21T03:03:22.060Z,-2.30
2023-01-21T03:05:26.878Z,-2.70
2023-01-21T03:07:31.176Z,-2.70
2023-01-21T03:09:34.181Z,-2.70
2023-01-21T03:11:37.063Z,-2.70
2023-01-21T03:13:59.183Z,-2.70
2023-01-21T03:16:28.793Z,-2.70
2023-01-21T03:18:33.239Z,-2.80
2023-01-21T03:20:37.525Z,-2.70
2023-01-21T03:22:40.442Z,-2.70
2023-01-21T03:24:44.858Z,-2.70
2023-01-21T03:26:49.147Z,-2.60
2023-01-21T03:28:53.139Z,-2.60
2023-01-21T03:30:57.086Z,-2.60
2023-01-21T03:33:01.013Z,-2.60
2023-01-21T03:35:05.313Z,-2.70
2023-01-21T03:37:09.485Z,-2.60
2023-01-21T03:39:13.778Z,-2.50
2023-01-21T03:41:18.091Z,-2.40
2023-01-21T03:43:20.892Z,-2.40
2023-01-21T03:45:27.531Z,-2.40
2023-01-21T03:47:31.903Z,-2.50
2023-01-21T03:49:35.890Z,-2.50
2023-01-21T03:51:39.787Z,-2.50
2023-01-21T03:53:43.168Z,-2.60
2023-01-21T03:55:45.611Z,-2.60
2023-01-21T03:57:48.082Z,-2.60
2023-01-21T03:59:50.618Z,-2.50
2023-01-21T04:01:53.502Z,-2.40
2023-01-21T04:03:56.038Z,-2.50
2023-01-21T04:05:58.551Z,-2.50
2023-01-21T04:08:01.630Z,-2.50
2023-01-21T04:10:04.702Z,-2.60
2023-01-21T04:12:07.228Z,-2.60
2023-01-21T04:14:09.681Z,-2.60
2023-01-21T04:16:12.387Z,-2.70
2023-01-21T04:18:14.955Z,-2.80
2023-01-21T04:20:19.477Z,-2.90
2023-01-21T04:22:21.996Z,-3.00
2023-01-21T04:24:24.743Z,-3.00
2023-01-21T04:26:27.221Z,-3.10
2023-01-21T04:28:29.669Z,-3.00
2023-01-21T04:30:32.246Z,-3.10
2023-01-21T04:32:36.547Z,-3.00
2023-01-21T04:34:39.044Z,-3.00
2023-01-21T04:36:41.543Z,-3.00
2023-01-21T04:38:44.026Z,-3.10
2023-01-21T04:40:46.475Z,-3.00
2023-01-21T04:42:49.058Z,-3.10
2023-01-21T04:44:53.896Z,-3.10
2023-01-21T04:46:56.400Z,-3.00
2023-01-21T04:48:58.915Z,-3.00
2023-01-21T04:51:01.582Z,-3.00
2023-01-21T04:53:04.193Z,-2.60
2023-01-21T04:55:08.411Z,-3.10
2023-01-21T04:57:11.409Z,-3.00
2023-01-21T04:59:14.068Z,-3.00
2023-01-21T05:01:16.644Z,-3.10
2023-01-21T05:03:19.146Z,-3.00
2023-01-21T05:05:21.720Z,-3.10
2023-01-21T05:07:24.207Z,-3.10
2023-01-21T05:09:26.679Z,-3.10
2023-01-21T05:11:29.252Z,-3.10
2023-01-21T05:13:31.738Z,-3.10
2023-01-21T05:15:34.235Z,-3.10
2023-01-21T05:17:36.905Z,-3.10
2023-01-21T05:19:39.438Z,-3.20
2023-01-21T05:21:41.883Z,-3.20
2023-01-21T05:23:44.393Z,-3.30
2023-01-21T05:25:49.102Z,-3.30
2023-01-21T05:27:52.319Z,-3.30
2023-01-21T05:29:56.430Z,-3.30
2023-01-21T05:31:58.985Z,-3.30
2023-01-21T05:34:01.527Z,-4.10
2023-01-21T05:36:04.462Z,-3.30
2023-01-21T05:38:07.135Z,-3.40
2023-01-21T05:40:11.193Z,-3.30
2023-01-21T05:42:13.650Z,-3.30
2023-01-21T05:44:17.742Z,-3.30
2023-01-21T05:46:20.504Z,-3.30
2023-01-21T05:48:23.242Z,-3.40
2023-01-21T05:50:25.748Z,-3.60
2023-01-21T05:52:28.188Z,-3.50
2023-01-21T05:54:30.717Z,-3.40
2023-01-21T05:56:33.223Z,-3.40
2023-01-21T05:58:36.260Z,-3.40
2023-01-21T06:00:40.560Z,-3.50
2023-01-21T06:02:43.113Z,-3.50
2023-01-21T06:04:45.660Z,-3.60
2023-01-21T06:06:48.132Z,-3.60
2023-01-21T06:08:50.626Z,-3.40
2023-01-21T06:10:55.703Z,-3.30
2023-01-21T06:12:58.208Z,-3.30
2023-01-21T06:15:00.691Z,-3.20
2023-01-21T06:17:03.364Z,-3.10
2023-01-21T06:19:05.943Z,-3.00
2023-01-21T06:21:08.425Z,-3.00
2023-01-21T06:23:10.909Z,-2.90
2023-01-21T06:25:13.453Z,-2.90
2023-01-21T06:27:15.931Z,-2.90
2023-01-21T06:29:18.551Z,-2.90
2023-01-21T06:31:21.239Z,-2.80
2023-01-21T06:33:24.108Z,-2.70
2023-01-21T06:35:26.620Z,-2.70
2023-01-21T06:37:29.137Z,-2.70
2023-01-21T06:39:31.598Z,-2.70
2023-01-21T06:41:34.081Z,-2.70
2023-01-21T06:43:36.631Z,-2.60
2023-01-21T06:45:39.094Z,-2.60
2023-01-21T06:47:42.302Z,-2.60
2023-01-21T06:49:44.803Z,-2.50
2023-01-21T06:51:48.371Z,-2.50
2023-01-21T06:53:51.239Z,-2.40
2023-01-21T06:55:53.713Z,-2.40
2023-01-21T06:57:56.286Z,-2.40
2023-01-21T06:59:58.760Z,-2.40
2023-01-21T07:02:01.268Z,-2.50
2023-01-21T07:04:03.987Z,-2.50
2023-01-21T07:06:06.989Z,-2.40
2023-01-21T07:08:10.001Z,-2.30
2023-01-21T07:10:12.465Z,-2.30
2023-01-21T07:12:15.062Z,-2.30
2023-01-21T07:14:17.521Z,-2.30
2023-01-21T07:16:20.070Z,-2.30
2023-01-21T07:18:22.580Z,-2.20
2023-01-21T07:20:27.057Z,-2.20
2023-01-21T07:22:29.670Z,-2.20
2023-01-21T07:24:32.397Z,-2.20
2023-01-21T07:26:36.910Z,-2.20
2023-01-21T07:28:39.394Z,-2.20
2023-01-21T07:30:41.892Z,-2.20
2023-01-21T07:32:44.342Z,-2.20
2023-01-21T07:34:46.988Z,-2.20
2023-01-21T07:36:49.476Z,-2.20
2023-01-21T07:38:51.926Z,-2.20
2023-01-21T07:40:54.449Z,-2.20
2023-01-21T07:42:56.938Z,-2.10
2023-01-21T07:45:01.619Z,-2.10
2023-01-21T07:47:04.152Z,-2.10
2023-01-21T07:49:06.624Z,-2.10
2023-01-21T07:51:09.145Z,-2.00
2023-01-21T07:53:12.554Z,-2.00
2023-01-21T07:55:15.382Z,-1.90
2023-01-21T07:57:18.418Z,-1.90
2023-01-21T07:59:20.981Z,-2.00
2023-01-21T08:01:25.522Z,-1.90
2023-01-21T08:03:28.329Z,-1.90
2023-01-21T08:05:30.894Z,-1.90
2023-01-21T08:07:33.552Z,-1.90
2023-01-21T08:09:36.736Z,-1.90
2023-01-21T08:11:39.282Z,-1.90
2023-01-21T08:13:41.743Z,-1.90
2023-01-21T08:15:44.373Z,-1.90
2023-01-21T08:17:46.959Z,-1.90
2023-01-21T08:19:49.436Z,-1.80
2023-01-21T08:21:51.923Z,-1.70
2023-01-21T08:23:54.422Z,-1.70
2023-01-21T08:25:56.894Z,-1.70
2023-01-21T08:27:59.719Z,-1.70
2023-01-21T08:30:02.216Z,-1.60
2023-01-21T08:32:04.852Z,-1.60
2023-01-21T08:34:07.367Z,-1.60
2023-01-21T08:36:10.084Z,-1.50
2023-01-21T08:38:12.702Z,-1.50
2023-01-21T08:40:15.537Z,-1.50
2023-01-21T08:42:18.060Z,-1.40
2023-01-21T08:44:20.530Z,-1.50
2023-01-21T08:46:23.005Z,-1.60
2023-01-21T08:48:25.583Z,-1.60
2023-01-21T08:50:28.037Z,-1.40
2023-01-21T08:52:30.550Z,-1.50
2023-01-21T08:54:33.004Z,-1.50
2023-01-21T08:56:35.538Z,-1.50
2023-01-21T08:58:37.997Z,-1.50
2023-01-21T09:00:41.328Z,-1.30
2023-01-21T09:02:44.113Z,-1.30
2023-01-21T09:04:46.860Z,-1.30
2023-01-21T09:06:49.584Z,-1.30
2023-01-21T09:08:52.086Z,-1.30
2023-01-21T09:11:03.773Z,-1.30
2023-01-21T09:13:06.482Z,-1.20
2023-01-21T09:15:09.426Z,-1.20
2023-01-21T09:17:11.899Z,-1.10
2023-01-21T09:19:14.380Z,-1.10
2023-01-21T09:21:16.997Z,-1.10
2023-01-21T09:23:25.461Z,-1.10
2023-01-21T09:25:27.951Z,-1.10
2023-01-21T09:27:30.545Z,-1.00
2023-01-21T09:29:33.235Z,-0.90
2023-01-21T09:31:35.834Z,-1.00
2023-01-21T09:33:39.144Z,-1.00
2023-01-21T09:35:41.602Z,-1.10
2023-01-21T09:37:45.183Z,-1.00
2023-01-21T09:39:49.167Z,-1.00
2023-01-21T09:41:52.860Z,-1.00
2023-01-21T09:43:59.594Z,-1.00
2023-01-21T09:46:04.208Z,-1.00
2023-01-21T09:48:08.311Z,-0.90
2023-01-21T09:50:13.674Z,-0.80
2023-01-21T09:52:20.794Z,-0.80
2023-01-21T09:54:33.361Z,-0.80
2023-01-21T09:56:37.661Z,-0.80
2023-01-21T09:58:41.972Z,-0.70
2023-01-21T10:00:46.414Z,-0.60
2023-01-21T10:02:51.282Z,-0.60
2023-01-21T10:04:55.911Z,-0.50
2023-01-21T10:06:59.759Z,-0.40
2023-01-21T10:09:27.806Z,-0.40
2023-01-21T10:11:35.131Z,-0.40
2023-01-21T10:13:41.687Z,-0.40
2023-01-21T10:15:56.158Z,-0.40
2023-01-21T10:18:00.565Z,-0.30
2023-01-21T10:20:05.510Z,-0.30
2023-01-21T10:22:11.102Z,-0.30
2023-01-21T10:24:17.574Z,-0.20
2023-01-21T10:26:21.182Z,-0.10
2023-01-21T10:28:24.767Z,-0.10
2023-01-21T10:30:29.102Z,0.00
2023-01-21T10:32:32.053Z,0.00
2023-01-21T10:34:37.059Z,0.00
2023-01-21T10:36:46.591Z,0.00
2023-01-21T10:38:51.756Z,0.10
2023-01-21T10:40:56.549Z,0.10
2023-01-21T10:43:00.914Z,0.20
2023-01-21T10:45:07.506Z,0.30
2023-01-21T10:47:12.908Z,0.30
2023-01-21T10:49:20.870Z,0.40
2023-01-21T10:51:25.762Z,0.30
2023-01-21T10:53:30.062Z,0.40
2023-01-21T10:55:36.167Z,0.30
2023-01-21T10:57:46.097Z,0.40
2023-01-21T10:59:49.719Z,0.40
2023-01-21T11:01:54.032Z,0.40
2023-01-21T11:03:58.288Z,0.50
2023-01-21T11:06:03.741Z,0.50
2023-01-21T11:08:06.734Z,0.60
2023-01-21T11:10:14.383Z,0.50
2023-01-21T11:12:18.798Z,0.50
2023-01-21T11:14:21.718Z,0.50
2023-01-21T11:16:49.800Z,0.60
2023-01-21T11:19:12.564Z,0.60
2023-01-21T11:21:17.147Z,0.60
2023-01-21T11:23:26.274Z,0.70
2023-01-21T11:25:31.037Z,0.70
2023-01-21T11:27:35.437Z,0.70
2023-01-21T11:29:41.084Z,0.00
2023-01-21T11:31:44.869Z,0.70
2023-01-21T11:33:58.422Z,0.60
2023-01-21T11:36:11.953Z,0.60
2023-01-21T11:38:22.796Z,0.70
2023-01-21T11:40:25.978Z,0.70
2023-01-21T11:42:29.512Z,0.70
2023-01-21T11:44:33.169Z,0.80
2023-01-21T11:46:36.754Z,0.80
2023-01-21T11:48:41.026Z,0.80
2023-01-21T11:50:43.630Z,0.90
2023-01-21T11:52:46.187Z,0.90
2023-01-21T11:54:48.662Z,0.90
2023-01-21T11:56:55.585Z,0.90
2023-01-21T11:58:58.110Z,0.90
2023-01-21T12:01:01.797Z,0.90
2023-01-21T12:03:05.790Z,0.90
2023-01-21T12:05:10.315Z,0.90
2023-01-21T12:07:16.523Z,0.90
2023-01-21T12:09:20.089Z,1.00
2023-01-21T12:11:23.654Z,0.90
2023-01-21T12:13:28.726Z,0.90
2023-01-21T12:15:35.920Z,1.00
2023-01-21T12:17:43.299Z,0.90
2023-01-21T12:19:50.104Z,0.90
2023-01-21T12:21:58.915Z,1.00
2023-01-21T12:24:05.803Z,0.90
2023-01-21T12:26:15.279Z,1.00
2023-01-21T12:28:21.869Z,0.90
2023-01-21T12:30:27.315Z,1.00
2023-01-21T12:32:31.860Z,1.00
2023-01-21T12:34:36.554Z,1.00
2023-01-21T12:36:41.199Z,1.00
2023-01-21T12:38:45.698Z,1.00
2023-01-21T12:40:50.472Z,1.00
2023-01-21T12:42:55.160Z,1.10
2023-01-21T12:44:59.452Z,1.10
2023-01-21T12:47:03.539Z,1.10
2023-01-21T12:49:07.886Z,1.10
2023-01-21T12:51:12.165Z,1.10
2023-01-21T12:53:17.586Z,1.00
2023-01-21T12:55:21.958Z,1.10
2023-01-21T12:57:26.326Z,1.10
2023-01-21T12:59:31.614Z,1.10
2023-01-21T13:01:37.485Z,1.10
2023-01-21T13:03:44.475Z,1.10
2023-01-21T13:05:48.921Z,1.00
2023-01-21T13:07:53.535Z,1.00
2023-01-21T13:09:58.633Z,1.10
2023-01-21T13:12:03.812Z,1.00
2023-01-21T13:14:17.769Z,1.00
2023-01-21T13:16:21.029Z,1.10
2023-01-21T13:18:25.556Z,1.10
2023-01-21T13:20:28.967Z,1.10
2023-01-21T13:22:35.853Z,1.10
2023-01-21T13:24:45.759Z,1.20
2023-01-21T13:26:50.378Z,1.20
2023-01-21T13:28:54.916Z,1.20
2023-01-21T13:30:59.428Z,1.20
2023-01-21T13:33:08.929Z,1.20
2023-01-21T13:35:16.109Z,1.20
2023-01-21T13:37:20.700Z,1.20
2023-01-21T13:39:25.398Z,1.20
2023-01-21T13:41:32.334Z,1.20
2023-01-21T13:43:50.155Z,1.20
2023-01-21T13:45:57.346Z,1.20
2023-01-21T13:48:05.211Z,1.20
2023-01-21T13:50:18.169Z,1.30
2023-01-21T13:52:22.705Z,1.30
2023-01-21T13:54:38.382Z,1.30
2023-01-21T13:56:45.486Z,1.30
2023-01-21T13:58:50.265Z,1.40
2023-01-21T14:00:55.271Z,1.40
2023-01-21T14:02:59.831Z,1.40
2023-01-21T14:05:04.692Z,1.50
2023-01-21T14:07:09.212Z,1.50
2023-01-21T14:09:14.058Z,1.50
2023-01-21T14:11:17.928Z,1.50
2023-01-21T14:13:28.596Z,1.50
2023-01-21T14:15:41.855Z,1.50
2023-01-21T14:17:58.921Z,1.50
2023-01-21T14:20:14.604Z,1.50
2023-01-21T14:22:25.371Z,1.50
2023-01-21T14:24:32.056Z,1.50
2023-01-21T14:26:39.989Z,1.60
2023-01-21T14:28:44.596Z,1.50
2023-01-21T14:30:47.893Z,1.60
2023-01-21T14:32:52.462Z,1.60
2023-01-21T14:34:58.439Z,1.60
2023-01-21T14:37:04.313Z,1.60
2023-01-21T14:39:08.862Z,1.50
2023-01-21T14:41:12.134Z,1.50
2023-01-21T14:43:19.892Z,1.60
2023-01-21T14:45:24.703Z,1.60
2023-01-21T14:47:41.594Z,1.60
2023-01-21T14:49:45.025Z,1.60
2023-01-21T14:51:49.123Z,1.50
2023-01-21T14:53:52.394Z,1.50
2023-01-21T14:56:10.019Z,1.50
2023-01-21T14:58:18.873Z,1.50
2023-01-21T15:00:23.289Z,1.50
2023-01-21T15:02:30.347Z,1.50
2023-01-21T15:04:35.943Z,1.50
2023-01-21T15:06:39.365Z,1.60
2023-01-21T15:08:45.588Z,1.60
2023-01-21T15:10:52.105Z,1.50
2023-01-21T15:12:56.034Z,1.50
2023-01-21T15:14:59.012Z,1.50
2023-01-21T15:17:01.637Z,1.50
2023-01-21T15:19:19.379Z,1.50
2023-01-21T15:21:34.183Z,1.50
2023-01-21T15:23:37.877Z,1.40
2023-01-21T15:25:42.174Z,1.40
2023-01-21T15:28:03.841Z,1.40
2023-01-21T15:30:24.206Z,1.40
2023-01-21T15:32:30.798Z,1.40
2023-01-21T15:34:33.902Z,1.40
2023-01-21T15:36:39.674Z,1.40
2023-01-21T15:38:42.767Z,1.40
2023-01-21T15:41:04.348Z,1.40
2023-01-21T15:43:09.413Z,1.40
2023-01-21T15:45:23.087Z,1.40
2023-01-21T15:47:30.891Z,1.40
2023-01-21T15:49:46.691Z,1.40
2023-01-21T15:51:51.279Z,1.30
2023-01-21T15:53:58.978Z,1.30
2023-01-21T15:56:07.738Z,1.30
2023-01-21T15:58:14.004Z,1.20
2023-01-21T16:00:40.923Z,1.20
2023-01-21T16:02:46.856Z,1.10
2023-01-21T16:04:57.668Z,1.10
2023-01-21T16:07:07.142Z,1.00
2023-01-21T16:09:11.467Z,1.00
2023-01-21T16:11:21.917Z,0.90
2023-01-21T16:13:26.235Z,1.00
2023-01-21T16:15:32.647Z,0.90
2023-01-21T16:17:40.550Z,0.90
2023-01-21T16:19:47.456Z,0.90
2023-01-21T16:21:54.564Z,0.90
2023-01-21T16:23:58.940Z,0.80
2023-01-21T16:26:01.733Z,0.80
2023-01-21T16:28:04.547Z,0.80
2023-01-21T16:30:12.573Z,0.80
2023-01-21T16:32:21.059Z,0.80
2023-01-21T16:34:25.040Z,0.80
2023-01-21T16:36:27.715Z,0.70
2023-01-21T16:38:31.410Z,0.70
2023-01-21T16:40:34.416Z,0.70
2023-01-21T16:42:37.672Z,0.60
2023-01-21T16:44:40.258Z,0.60
2023-01-21T16:46:44.655Z,0.60
2023-01-21T16:48:50.414Z,0.60
2023-01-21T16:50:55.596Z,0.60
2023-01-21T16:52:58.973Z,0.60
2023-01-21T16:55:03.810Z,0.60
2023-01-21T16:57:11.204Z,0.60
2023-01-21T16:59:18.869Z,0.60
2023-01-21T17:01:25.142Z,0.60
2023-01-21T17:03:28.133Z,0.60
2023-01-21T17:05:32.455Z,0.60
2023-01-21T17:07:41.954Z,0.60
2023-01-21T17:09:44.572Z,0.60
2023-01-21T17:11:47.361Z,0.60
2023-01-21T17:13:50.132Z,0.60
2023-01-21T17:16:00.359Z,0.50
2023-01-21T17:18:08.272Z,0.50
2023-01-21T17:20:30.099Z,0.60
2023-01-21T17:22:34.415Z,0.50
2023-01-21T17:24:42.536Z,0.50
2023-01-21T17:26:46.442Z,0.60
2023-01-21T17:28:55.435Z,0.50
2023-01-21T17:31:11.322Z,0.50
2023-01-21T17:33:28.112Z,0.50
2023-01-21T17:35:31.408Z,0.50
2023-01-21T17:37:44.711Z,0.50
2023-01-21T17:40:00.583Z,0.50
2023-01-21T17:42:04.031Z,0.50
2023-01-21T17:44:08.704Z,0.50
2023-01-21T17:46:14.251Z,0.50
2023-01-21T17:48:23.572Z,0.60
2023-01-21T17:50:29.880Z,0.50
2023-01-21T17:52:32.361Z,0.50
2023-01-21T17:54:34.906Z,0.60
2023-01-21T17:56:39.153Z,0.60
2023-01-21T17:58:49.108Z,0.70
2023-01-21T18:00:53.956Z,0.70
2023-01-21T18:02:56.582Z,0.60
2023-01-21T18:04:59.203Z,0.60
2023-01-21T18:07:02.018Z,0.60
2023-01-21T18:09:06.835Z,0.60
2023-01-21T18:11:13.349Z,0.70
2023-01-21T18:13:16.660Z,0.70
2023-01-21T18:15:21.987Z,0.70
2023-01-21T18:17:24.931Z,0.70
2023-01-21T18:19:28.546Z,0.80
2023-01-21T18:21:38.945Z,0.80
2023-01-21T18:23:46.354Z,0.90
2023-01-21T18:25:51.733Z,0.90
2023-01-21T18:27:55.771Z,0.90
2023-01-21T18:29:58.705Z,0.90
2023-01-21T18:32:01.383Z,1.00
2023-01-21T18:34:08.082Z,1.00
2023-01-21T18:36:11.213Z,1.00
2023-01-21T18:38:14.418Z,1.00
2023-01-21T18:40:18.128Z,1.00
2023-01-21T18:42:20.605Z,1.00
2023-01-21T18:44:24.921Z,1.00
2023-01-21T18:46:27.671Z,1.10
2023-01-21T18:48:32.399Z,1.10
2023-01-21T18:50:34.880Z,1.00
2023-01-21T18:52:37.575Z,1.10
2023-01-21T18:54:42.977Z,1.10
2023-01-21T18:56:45.787Z,1.10
2023-01-21T18:58:49.257Z,1.10
2023-01-21T19:00:51.897Z,1.10
2023-01-21T19:03:00.907Z,1.10
2023-01-21T19:04:59.384Z,1.10
2023-01-21T19:07:03.836Z,1.10
2023-01-21T19:09:10.793Z,1.20
2023-01-21T19:11:21.755Z,1.20
2023-01-21T19:13:24.372Z,1.20
2023-01-21T19:15:30.951Z,1.20
2023-01-21T19:17:33.472Z,1.20
2023-01-21T19:19:38.954Z,1.20
2023-01-21T19:21:41.700Z,1.20
2023-01-21T19:23:45.601Z,1.20
2023-01-21T19:25:52.323Z,1.20
2023-01-21T19:27:56.478Z,1.20
2023-01-21T19:29:59.077Z,1.20
2023-01-21T19:32:01.759Z,1.20
2023-01-21T19:34:04.644Z,1.20
2023-01-21T19:36:11.372Z,1.10
2023-01-21T19:38:15.622Z,1.20
2023-01-21T19:40:20.028Z,1.20
2023-01-21T19:42:23.024Z,1.20
2023-01-21T19:44:25.540Z,1.10
2023-01-21T19:46:28.428Z,1.20
2023-01-21T19:48:33.913Z,1.20
2023-01-21T19:50:36.604Z,1.20
2023-01-21T19:52:41.727Z,1.20
2023-01-21T19:54:44.234Z,1.20
2023-01-21T19:56:46.714Z,1.20
2023-01-21T19:58:49.310Z,1.20
2023-01-21T20:00:52.921Z,1.20
2023-01-21T20:02:57.040Z,1.10
2023-01-21T20:04:59.575Z,1.20
2023-01-21T20:07:02.368Z,1.10
2023-01-21T20:09:05.253Z,1.10
2023-01-21T20:11:07.754Z,1.20
2023-01-21T20:13:11.981Z,1.20
2023-01-21T20:15:15.696Z,1.20
2023-01-21T20:17:18.437Z,1.20
2023-01-21T20:19:22.407Z,1.20
2023-01-21T20:21:25.087Z,1.30
2023-01-21T20:23:27.569Z,1.30
2023-01-21T20:25:32.099Z,1.30
2023-01-21T20:27:37.571Z,1.30
2023-01-21T20:29:55.506Z,1.30
2023-01-21T20:31:47.470Z,1.30
2023-01-21T20:33:50.079Z,1.30
2023-01-21T20:35:53.983Z,1.30
2023-01-21T20:37:56.838Z,1.20
2023-01-21T20:40:08.819Z,1.30
2023-01-21T20:42:14.520Z,1.20
2023-01-21T20:44:19.535Z,1.20
2023-01-21T20:46:23.871Z,1.30
2023-01-21T20:48:38.255Z,1.30
2023-01-21T20:50:43.562Z,1.30
2023-01-21T20:52:48.626Z,1.20
2023-01-21T20:54:51.246Z,1.20
2023-01-21T20:56:53.750Z,1.30
2023-01-21T20:58:57.717Z,1.20
2023-01-21T21:01:00.363Z,1.30
2023-01-21T21:03:11.158Z,1.30
2023-01-21T21:05:14.454Z,1.30
2023-01-21T21:07:18.386Z,1.40
2023-01-21T21:09:22.179Z,1.30
2023-01-21T21:11:24.947Z,1.30
2023-01-21T21:13:27.530Z,1.30
2023-01-21T21:15:30.842Z,1.20
2023-01-21T21:17:33.371Z,1.30
2023-01-21T21:19:35.976Z,1.20
2023-01-21T21:21:40.366Z,1.10
2023-01-21T21:23:45.343Z,1.10
2023-01-21T21:25:50.475Z,1.10
2023-01-21T21:27:53.604Z,1.00
2023-01-21T21:29:57.948Z,1.00
2023-01-21T21:32:02.509Z,1.00
2023-01-21T21:34:05.110Z,1.00
2023-01-21T21:36:15.088Z,1.00
2023-01-21T21:38:22.969Z,1.00
2023-01-21T21:40:29.123Z,1.00
2023-01-21T21:42:53.827Z,1.00
2023-01-21T21:44:57.500Z,1.00
2023-01-21T21:47:20.972Z,1.00
2023-01-21T21:49:24.414Z,1.00
2023-01-21T21:51:28.847Z,0.90
2023-01-21T21:53:31.731Z,1.00
2023-01-21T21:55:35.282Z,1.00
2023-01-21T21:57:37.859Z,1.00
2023-01-21T21:59:44.086Z,1.00
2023-01-21T22:01:46.568Z,1.00
2023-01-21T22:03:49.453Z,1.00
2023-01-21T22:05:53.270Z,1.00
2023-01-21T22:07:55.792Z,1.00
2023-01-21T22:09:58.814Z,1.00
2023-01-21T22:12:01.465Z,1.00
2023-01-21T22:14:04.325Z,1.10
2023-01-21T22:16:10.094Z,1.10
2023-01-21T22:18:15.602Z,1.00
2023-01-21T22:20:18.342Z,1.00
2023-01-21T22:22:23.198Z,1.00
2023-01-21T22:24:26.841Z,1.00
2023-01-21T22:26:29.937Z,1.00
2023-01-21T22:28:33.335Z,1.00
2023-01-21T22:30:38.284Z,1.10
2023-01-21T22:32:42.907Z,1.10
2023-01-21T22:34:45.607Z,1.10
2023-01-21T22:36:48.195Z,1.10
2023-01-21T22:38:59.478Z,1.00
2023-01-21T22:41:04.417Z,1.10
2023-01-21T22:43:06.970Z,1.10
2023-01-21T22:45:10.143Z,1.00
2023-01-21T22:47:12.651Z,1.00
2023-01-21T22:49:15.140Z,1.10
2023-01-21T22:51:19.705Z,1.10
2023-01-21T22:53:22.650Z,1.00
2023-01-21T22:55:25.203Z,1.00
2023-01-21T22:57:27.691Z,1.00
2023-01-21T22:59:32.435Z,1.10
2023-01-21T23:01:35.763Z,1.00
2023-01-21T23:03:40.659Z,1.00
2023-01-21T23:05:43.454Z,1.00
2023-01-21T23:07:48.003Z,1.00
2023-01-21T23:09:50.512Z,1.00
2023-01-21T23:11:54.593Z,1.00
2023-01-21T23:13:58.711Z,1.00
2023-01-21T23:16:01.534Z,1.00
2023-01-21T23:18:04.447Z,1.00
2023-01-21T23:20:08.548Z,1.00
2023-01-21T23:22:13.399Z,1.00
2023-01-21T23:24:20.077Z,1.00
2023-01-21T23:26:22.577Z,1.00
2023-01-21T23:28:25.102Z,1.00
2023-01-21T23:30:27.694Z,0.90
2023-01-21T23:32:30.206Z,1.00
2023-01-21T23:34:32.718Z,0.90
2023-01-21T23:36:37.960Z,1.00
2023-01-21T23:38:43.615Z,1.00
2023-01-21T23:40:46.105Z,1.00
2023-01-21T23:42:49.199Z,1.00
2023-01-21T23:44:51.683Z,1.00
2023-01-21T23:46:54.285Z,1.10
2023-01-21T23:48:56.803Z,1.10
2023-01-21T23:51:03.184Z,1.10
2023-01-21T23:53:05.741Z,1.10
2023-01-21T23:55:11.531Z,1.10
2023-01-21T23:57:14.021Z,1.10
2023-01-21T23:59:16.532Z,1.00
